Kaioh(e/b) — JD2896 — position and weather

sailwx.info

Track history (hours):
 
Tides and Currents Weather Stations Pressure Air Temp Water Temp Dewpoint Dewpoint Depression Visibility Wind Speed Wind Dir Waves Ship Positions

Kaioh(e/b)

Last reported at 2018-Apr-20 15:56 UTC. Time now 2018-Apr-20 16:28 UTC.
Position N 35°00' E 136°40'.

Length 37 m.

Type: Other ship. MMSI: 431000915.

Date/timePositionNaut miles runAvg speedWind from/ knotsBaromVisibWave heightAir tempDewpointWater temp
2018-Apr-20 15:56N 35°00' E 136°40'0 0.0
2018-Apr-20 15:26N 35°00' E 136°40'0 0.0
2018-Apr-20 14:56N 35°00' E 136°40'0 0.0
2018-Apr-20 14:20N 35°00' E 136°40'0 0.0
2018-Apr-20 13:56N 35°00' E 136°40'0 0.0
2018-Apr-20 13:26N 35°00' E 136°40'0 0.0
2018-Apr-20 12:56N 35°00' E 136°40'0 0.0
2018-Apr-20 12:20N 35°00' E 136°40'0 0.0
2018-Apr-20 11:56N 35°00' E 136°40'0 0.0
2018-Apr-20 11:20N 35°00' E 136°40'0 0.0
2018-Apr-20 00:08N 35°00' E 136°40'0 0.0
2018-Apr-19 23:56N 35°00' E 136°40'0 0.0
2018-Apr-19 19:08N 35°00' E 136°40'0 0.0
2018-Apr-19 16:17N 35°00' E 136°40'0 0.0
2018-Apr-19 15:59N 35°00' E 136°40'0 0.0
2018-Apr-19 14:53N 35°00' E 136°40'0 0.0
2018-Apr-19 13:53N 35°00' E 136°40'0 0.0
2018-Apr-19 13:29N 35°00' E 136°40'0 0.0
2018-Apr-19 11:41N 35°00' E 136°40'0 0.0
2018-Apr-19 11:29N 35°00' E 136°40'0 0.0
2018-Apr-19 10:59N 35°00' E 136°40'0 0.0
2018-Apr-19 10:29N 35°00' E 136°40'0 0.0
2018-Apr-19 09:47N 35°00' E 136°40'0 0.0
2018-Apr-19 09:29N 35°00' E 136°40'0 0.0
2018-Apr-19 09:00N 35°00' E 136°40'3 5.4
2018-Apr-19 08:30N 34°58' E 136°39'1 2.2
2018-Apr-19 08:01N 34°57' E 136°39'0 0.4
2018-Apr-19 07:30N 34°57' E 136°39'0 0.0
2018-Apr-19 07:00N 34°57' E 136°39'0 0.0
2018-Apr-19 06:31N 34°57' E 136°39'0 0.1
2018-Apr-19 06:00N 34°57' E 136°39'0 0.2
2018-Apr-19 05:30N 34°57' E 136°39'0 0.2
2018-Apr-19 05:01N 34°57' E 136°39'0 0.1
2018-Apr-19 04:31N 34°57' E 136°39'0 0.0
2018-Apr-19 04:01N 34°57' E 136°39'0 0.0
2018-Apr-19 03:30N 34°57' E 136°39'0 0.2
2018-Apr-19 03:00N 34°57' E 136°39'3 5.7
2018-Apr-19 02:31N 34°59' E 136°41'1 1.8
2018-Apr-19 01:45N 35°00' E 136°40'0 0.0
2018-Apr-18 11:21N 35°00' E 136°40'0 0.0
2018-Apr-18 10:51N 35°00' E 136°40'0 0.0
2018-Apr-18 05:03N 35°00' E 136°40'0 0.0
2018-Apr-18 04:57N 35°00' E 136°40'0 0.0
2018-Apr-18 04:27N 35°00' E 136°40'0 0.0
2018-Apr-18 02:45N 35°00' E 136°40'0 0.0
2018-Apr-18 02:27N 35°00' E 136°40'0 0.0
2018-Apr-18 01:57N 35°00' E 136°40'0 0.0
2018-Apr-17 22:21N 35°00' E 136°40'0 0.0
2018-Apr-17 21:51N 35°00' E 136°40'0 0.0
2018-Apr-17 12:34N 35°00' E 136°40'0 0.3
2018-Apr-17 12:30N 35°00' E 136°40'5 9.1
2018-Apr-17 12:00N 34°56' E 136°43'2 3.6
2018-Apr-17 11:30N 34°54' E 136°43'1 2.6
2018-Apr-17 11:00N 34°56' E 136°42'0 0.7
2018-Apr-17 10:30N 34°56' E 136°42'1 1.3
2018-Apr-17 09:59N 34°56' E 136°42'0 0.7
2018-Apr-17 09:30N 34°56' E 136°42'0 0.6
2018-Apr-17 09:00N 34°56' E 136°42'0 0.5
2018-Apr-17 08:30N 34°56' E 136°42'0 0.4
2018-Apr-17 08:00N 34°56' E 136°42'0 0.1
2018-Apr-17 07:30N 34°56' E 136°42'0 0.2
2018-Apr-17 07:00N 34°56' E 136°42'0 0.4
2018-Apr-17 06:30N 34°56' E 136°42'0 0.6
2018-Apr-17 06:00N 34°56' E 136°42'0 0.1
2018-Apr-17 05:31N 34°56' E 136°42'0 0.6
2018-Apr-17 05:00N 34°56' E 136°42'0 0.1
2018-Apr-17 04:30N 34°56' E 136°42'0 0.4
2018-Apr-17 04:00N 34°56' E 136°42'0 0.4
2018-Apr-17 03:30N 34°56' E 136°42'0 0.0
2018-Apr-17 03:00N 34°56' E 136°42'0 0.1
2018-Apr-17 02:30N 34°56' E 136°42'0 0.5
2018-Apr-17 02:00N 34°56' E 136°42'0 0.2
2018-Apr-17 01:30N 34°56' E 136°42'0 0.1
2018-Apr-17 01:00N 34°56' E 136°42'0 0.2
2018-Apr-17 00:30N 34°56' E 136°42'0 0.1
2018-Apr-17 00:00N 34°56' E 136°42'0 0.1
2018-Apr-16 23:30N 34°56' E 136°42'0 0.4
2018-Apr-16 23:00N 34°56' E 136°42'0 0.3
2018-Apr-16 22:30N 34°56' E 136°42'0 0.4
2018-Apr-16 22:00N 34°56' E 136°42'0 0.2
2018-Apr-16 21:30N 34°56' E 136°42'0 0.1
2018-Apr-16 21:00N 34°56' E 136°42'0 0.6
2018-Apr-16 20:30N 34°56' E 136°42'0 0.5
2018-Apr-16 20:00N 34°56' E 136°42'0 0.2
2018-Apr-16 19:30N 34°56' E 136°42'0 0.0
2018-Apr-16 19:01N 34°56' E 136°42'0 0.0
2018-Apr-16 18:31N 34°56' E 136°42'0 0.2
2018-Apr-16 18:00N 34°56' E 136°42'0 0.1
2018-Apr-16 17:30N 34°56' E 136°42'0 0.4
2018-Apr-16 17:00N 34°56' E 136°42'0 0.3
2018-Apr-16 16:30N 34°56' E 136°42'0 0.2
2018-Apr-16 16:01N 34°56' E 136°42'0 0.4
2018-Apr-16 15:31N 34°56' E 136°42'0 0.2
2018-Apr-16 15:00N 34°56' E 136°42'0 0.2
2018-Apr-16 14:30N 34°56' E 136°42'0 0.2
2018-Apr-16 14:00N 34°56' E 136°42'0 0.0
2018-Apr-16 13:31N 34°56' E 136°42'0 0.1
2018-Apr-16 13:00N 34°56' E 136°42'0 0.2
2018-Apr-16 12:30N 34°56' E 136°42'0 0.0
2018-Apr-16 12:00N 34°56' E 136°42'0 0.1
2018-Apr-16 11:30N 34°56' E 136°42'0 0.2
2018-Apr-16 11:01N 34°56' E 136°42'0 0.6
2018-Apr-16 10:30N 34°56' E 136°42'0 0.1
2018-Apr-16 10:00N 34°56' E 136°42'0 0.2
2018-Apr-16 09:30N 34°56' E 136°42'0 0.0
2018-Apr-16 09:00N 34°56' E 136°42'0 0.2
2018-Apr-16 08:30N 34°56' E 136°42'0 0.2
2018-Apr-16 08:00N 34°56' E 136°42'0 0.1
2018-Apr-16 07:30N 34°56' E 136°42'0 0.3
2018-Apr-16 07:00N 34°56' E 136°42'0 0.3
2018-Apr-16 06:30N 34°56' E 136°42'0 0.5
2018-Apr-16 06:00N 34°56' E 136°42'0 0.1
2018-Apr-16 05:30N 34°56' E 136°42'0 0.3
2018-Apr-16 05:00N 34°56' E 136°42'0 0.3
2018-Apr-16 04:30N 34°56' E 136°42'0 0.4
2018-Apr-16 04:00N 34°56' E 136°42'0 0.2
2018-Apr-16 03:30N 34°56' E 136°42'2 3.5
2018-Apr-16 03:00N 34°56' E 136°44'4 8.7
2018-Apr-16 02:31N 34°58' E 136°49'0 0.2
2018-Apr-16 02:00N 34°58' E 136°49'0 0.1
2018-Apr-16 01:30N 34°58' E 136°49'0 0.8
2018-Apr-16 01:00N 34°58' E 136°49'4 7.2
2018-Apr-16 00:30N 34°55' E 136°47'5 9.2
2018-Apr-15 23:55N 34°50' E 136°47'510.9
2018-Apr-15 23:30N 34°54' E 136°46'713.2
2018-Apr-15 23:00N 34°60' E 136°41'1 1.1
2018-Apr-15 21:45N 35°00' E 136°40'0 0.0
2018-Apr-15 21:27N 35°00' E 136°40'0 0.0
2018-Apr-15 20:57N 35°00' E 136°40'0 0.0
2018-Apr-15 19:33N 35°00' E 136°40'0 0.0
2018-Apr-15 19:27N 35°00' E 136°40'0 0.0
2018-Apr-15 15:09N 35°00' E 136°40'0 0.0
2018-Apr-15 14:57N 35°00' E 136°40'0 0.0
2018-Apr-15 07:46N 35°00' E 136°40'2 6.4
2018-Apr-15 07:30N 34°60' E 136°42'611.7
2018-Apr-15 07:00N 34°59' E 136°49'1 1.2
2018-Apr-15 06:30N 34°59' E 136°50'0 0.4
2018-Apr-15 06:00N 34°59' E 136°49'0 0.6
2018-Apr-15 05:30N 34°59' E 136°50'0 0.3
2018-Apr-15 05:00N 34°59' E 136°49'0 0.0
2018-Apr-15 04:30N 34°59' E 136°49'0 0.1
2018-Apr-15 04:00N 34°59' E 136°49'0 0.0
2018-Apr-15 03:30N 34°59' E 136°49'0 0.5
2018-Apr-15 03:01N 34°59' E 136°50'0 0.4
2018-Apr-15 02:30N 34°59' E 136°49'0 0.1
2018-Apr-15 02:00N 34°59' E 136°49'0 0.0
2018-Apr-15 01:30N 34°59' E 136°49'0 0.0
2018-Apr-15 01:00N 34°59' E 136°49'0 0.0
2018-Apr-15 00:30N 34°59' E 136°49'0 0.0
2018-Apr-15 00:00N 34°59' E 136°49'0 0.0
2018-Apr-14 23:30N 34°59' E 136°49'0 0.1
2018-Apr-14 23:00N 34°59' E 136°49'0 0.0
2018-Apr-14 22:30N 34°59' E 136°49'0 0.0
2018-Apr-14 22:00N 34°59' E 136°49'0 0.0
2018-Apr-14 21:30N 34°59' E 136°49'0 0.0
2018-Apr-14 21:00N 34°59' E 136°49'0 0.0
2018-Apr-14 20:30N 34°59' E 136°49'0 0.0
2018-Apr-14 20:00N 34°59' E 136°49'0 0.0
2018-Apr-14 19:30N 34°59' E 136°49'0 0.5
2018-Apr-14 19:00N 34°59' E 136°50'0 0.5
2018-Apr-14 18:29N 34°59' E 136°49'0 0.0
2018-Apr-14 18:00N 34°59' E 136°49'0 0.0
2018-Apr-14 17:30N 34°59' E 136°49'0 0.0
2018-Apr-14 17:00N 34°59' E 136°49'0 0.1
2018-Apr-14 16:31N 34°59' E 136°49'0 0.0
2018-Apr-14 16:00N 34°59' E 136°49'0 0.0
2018-Apr-14 15:30N 34°59' E 136°49'0 0.6
2018-Apr-14 15:01N 34°59' E 136°50'0 0.7
2018-Apr-14 14:31N 34°59' E 136°49'0 0.0
2018-Apr-14 14:00N 34°59' E 136°49'0 0.0
2018-Apr-14 13:30N 34°59' E 136°49'0 0.0
2018-Apr-14 13:00N 34°59' E 136°49'0 0.0
2018-Apr-14 12:30N 34°59' E 136°49'0 0.0
2018-Apr-14 12:00N 34°59' E 136°49'0 0.0
2018-Apr-14 11:30N 34°59' E 136°49'0 0.6
2018-Apr-14 11:01N 34°59' E 136°50'0 0.5
2018-Apr-14 10:30N 34°59' E 136°49'0 0.1
2018-Apr-14 10:00N 34°59' E 136°49'0 0.1
2018-Apr-14 09:30N 34°59' E 136°49'0 0.0
2018-Apr-14 09:01N 34°59' E 136°49'0 0.0
2018-Apr-14 08:30N 34°59' E 136°49'0 0.0
2018-Apr-14 08:00N 34°59' E 136°49'0 0.0
2018-Apr-14 07:30N 34°59' E 136°49'0 0.5
2018-Apr-14 07:01N 34°59' E 136°50'0 0.4
2018-Apr-14 06:30N 34°59' E 136°49'0 0.0
2018-Apr-14 06:01N 34°59' E 136°49'0 0.0
2018-Apr-14 05:30N 34°59' E 136°49'0 0.0
2018-Apr-14 05:00N 34°59' E 136°49'0 0.0
2018-Apr-14 04:30N 34°59' E 136°49'0 0.0
2018-Apr-14 04:00N 34°59' E 136°49'0 0.2
2018-Apr-14 03:31N 34°59' E 136°50'0 0.2
2018-Apr-14 03:00N 34°59' E 136°49'0 0.2
2018-Apr-14 02:30N 34°59' E 136°50'0 0.0
2018-Apr-14 02:00N 34°59' E 136°50'0 0.3
2018-Apr-14 01:30N 34°59' E 136°49'0 0.5
2018-Apr-14 01:00N 34°59' E 136°50'0 0.4
2018-Apr-14 00:30N 34°59' E 136°49'0 0.1
2018-Apr-14 00:01N 34°59' E 136°50'0 0.2
2018-Apr-13 23:30N 34°59' E 136°50'0 0.1
2018-Apr-13 23:00N 34°59' E 136°50'1 2.0
2018-Apr-13 22:30N 34°58' E 136°48'612.1
2018-Apr-13 22:00N 34°60' E 136°41'1 0.1
2018-Apr-13 11:44N 35°00' E 136°40'0 0.0
2018-Apr-13 11:26N 35°00' E 136°40'0 0.0
2018-Apr-13 00:14N 35°00' E 136°40'0 0.0
2018-Apr-12 23:14N 35°00' E 136°40'0 0.0
2018-Apr-12 15:44N 35°00' E 136°40'0 0.0
2018-Apr-12 15:20N 35°00' E 136°40'0 0.0
2018-Apr-12 14:50N 35°00' E 136°40'0 0.0
2018-Apr-12 14:14N 35°00' E 136°40'0 0.0
2018-Apr-12 13:41N 35°00' E 136°40'0 0.0
2018-Apr-12 13:20N 35°00' E 136°40'0 0.0
2018-Apr-12 12:56N 35°00' E 136°40'0 0.0
2018-Apr-12 12:26N 35°00' E 136°40'0 0.0
2018-Apr-12 10:26N 35°00' E 136°40'0 0.0
2018-Apr-12 01:44N 35°00' E 136°40'0 0.0
2018-Apr-12 01:08N 35°00' E 136°40'0 0.0
2018-Apr-11 23:47N 35°00' E 136°40'0 0.0
2018-Apr-11 23:26N 35°00' E 136°40'0 0.0
2018-Apr-11 22:44N 35°00' E 136°40'0 0.0
2018-Apr-11 22:20N 35°00' E 136°40'0 0.0
2018-Apr-11 21:56N 35°00' E 136°40'0 0.0
2018-Apr-11 21:26N 35°00' E 136°40'0 0.0
2018-Apr-11 20:56N 35°00' E 136°40'0 0.0
2018-Apr-11 20:26N 35°00' E 136°40'0 0.0
2018-Apr-11 19:56N 35°00' E 136°40'0 0.0
2018-Apr-11 19:20N 35°00' E 136°40'0 0.0
2018-Apr-11 18:50N 35°00' E 136°40'0 0.0
2018-Apr-11 18:02N 35°00' E 136°40'0 0.0
2018-Apr-11 17:50N 35°00' E 136°40'0 0.0
2018-Apr-11 15:47N 35°00' E 136°40'0 0.0
2018-Apr-11 15:29N 35°00' E 136°40'0 0.0
2018-Apr-11 14:53N 35°00' E 136°40'0 0.0
2018-Apr-11 14:29N 35°00' E 136°40'0 0.0
2018-Apr-11 13:56N 35°00' E 136°40'0 0.0
2018-Apr-11 13:23N 35°00' E 136°40'0 0.0
2018-Apr-11 12:56N 35°00' E 136°40'0 0.0
2018-Apr-11 12:26N 35°00' E 136°40'0 0.0
2018-Apr-11 11:50N 35°00' E 136°40'0 0.0
2018-Apr-11 11:26N 35°00' E 136°40'0 0.0
2018-Apr-11 11:00N 35°00' E 136°40'4 8.8
2018-Apr-11 10:31N 34°57' E 136°43'713.0
2018-Apr-11 10:00N 34°51' E 136°46'612.9
2018-Apr-11 09:30N 34°45' E 136°49'12 6.5
2018-Apr-11 07:42N 34°36' E 136°58'3 9.7
2018-Apr-11 07:21N 34°38' E 136°54'411.7
2018-Apr-11 07:00N 34°40' E 136°50'611.0
2018-Apr-11 06:30N 34°45' E 136°47'511.1
2018-Apr-11 06:00N 34°50' E 136°46'612.6
2018-Apr-11 05:30N 34°56' E 136°47'3 6.0
2018-Apr-11 05:00N 34°59' E 136°49'0 0.0
2018-Apr-11 04:31N 34°59' E 136°49'0 0.9
2018-Apr-11 04:00N 34°58' E 136°49'0 0.5
2018-Apr-11 03:30N 34°58' E 136°49'0 0.0
2018-Apr-11 03:00N 34°58' E 136°49'0 0.0
2018-Apr-11 02:30N 34°58' E 136°49'0 0.5
2018-Apr-11 02:00N 34°58' E 136°49'0 0.6
2018-Apr-11 01:30N 34°58' E 136°49'0 0.1
2018-Apr-11 01:00N 34°58' E 136°49'0 0.0
2018-Apr-11 00:30N 34°58' E 136°49'0 0.0
2018-Apr-11 00:00N 34°58' E 136°49'0 0.0
2018-Apr-10 23:30N 34°58' E 136°49'0 0.0
2018-Apr-10 23:00N 34°58' E 136°49'0 0.0
2018-Apr-10 22:29N 34°58' E 136°49'0 0.5
2018-Apr-10 22:00N 34°58' E 136°49'0 0.5
2018-Apr-10 21:31N 34°58' E 136°49'0 0.0
2018-Apr-10 21:00N 34°58' E 136°49'0 0.0
2018-Apr-10 20:30N 34°58' E 136°49'0 0.0
2018-Apr-10 20:00N 34°58' E 136°49'0 0.0
2018-Apr-10 19:30N 34°58' E 136°49'0 0.0
2018-Apr-10 19:00N 34°58' E 136°49'0 0.0
2018-Apr-10 18:30N 34°58' E 136°49'0 0.4
2018-Apr-10 18:00N 34°58' E 136°49'0 0.4
2018-Apr-10 17:30N 34°58' E 136°49'0 0.0
2018-Apr-10 17:00N 34°58' E 136°49'0 0.0
2018-Apr-10 16:30N 34°58' E 136°49'0 0.1
2018-Apr-10 16:00N 34°58' E 136°49'  
Track history (hours):
 
Tides and Currents Weather Stations Pressure Air Temp Water Temp Dewpoint Dewpoint Depression Visibility Wind Speed Wind Dir Waves Ship Positions

Kaioh(e/b)

Last reported at 2018-Apr-20 15:56 UTC. Time now 2018-Apr-20 16:28 UTC.
Position N 35°00' E 136°40'.

Length 37 m.

Type: Other ship. MMSI: 431000915.

Date/timePositionNaut miles runAvg speedWind from/ knotsBaromVisibWave heightAir tempDewpointWater temp
2018-Apr-20 15:56N 35°00' E 136°40'0 0.0
2018-Apr-20 15:26N 35°00' E 136°40'0 0.0
2018-Apr-20 14:56N 35°00' E 136°40'0 0.0
2018-Apr-20 14:20N 35°00' E 136°40'0 0.0
2018-Apr-20 13:56N 35°00' E 136°40'0 0.0
2018-Apr-20 13:26N 35°00' E 136°40'0 0.0
2018-Apr-20 12:56N 35°00' E 136°40'0 0.0
2018-Apr-20 12:20N 35°00' E 136°40'0 0.0
2018-Apr-20 11:56N 35°00' E 136°40'0 0.0
2018-Apr-20 11:20N 35°00' E 136°40'0 0.0
2018-Apr-20 00:08N 35°00' E 136°40'0 0.0
2018-Apr-19 23:56N 35°00' E 136°40'0 0.0
2018-Apr-19 19:08N 35°00' E 136°40'0 0.0
2018-Apr-19 16:17N 35°00' E 136°40'0 0.0
2018-Apr-19 15:59N 35°00' E 136°40'0 0.0
2018-Apr-19 14:53N 35°00' E 136°40'0 0.0
2018-Apr-19 13:53N 35°00' E 136°40'0 0.0
2018-Apr-19 13:29N 35°00' E 136°40'0 0.0
2018-Apr-19 11:41N 35°00' E 136°40'0 0.0
2018-Apr-19 11:29N 35°00' E 136°40'0 0.0
2018-Apr-19 10:59N 35°00' E 136°40'0 0.0
2018-Apr-19 10:29N 35°00' E 136°40'0 0.0
2018-Apr-19 09:47N 35°00' E 136°40'0 0.0
2018-Apr-19 09:29N 35°00' E 136°40'0 0.0
2018-Apr-19 09:00N 35°00' E 136°40'3 5.4
2018-Apr-19 08:30N 34°58' E 136°39'1 2.2
2018-Apr-19 08:01N 34°57' E 136°39'0 0.4
2018-Apr-19 07:30N 34°57' E 136°39'0 0.0
2018-Apr-19 07:00N 34°57' E 136°39'0 0.0
2018-Apr-19 06:31N 34°57' E 136°39'0 0.1
2018-Apr-19 06:00N 34°57' E 136°39'0 0.2
2018-Apr-19 05:30N 34°57' E 136°39'0 0.2
2018-Apr-19 05:01N 34°57' E 136°39'0 0.1
2018-Apr-19 04:31N 34°57' E 136°39'0 0.0
2018-Apr-19 04:01N 34°57' E 136°39'0 0.0
2018-Apr-19 03:30N 34°57' E 136°39'0 0.2
2018-Apr-19 03:00N 34°57' E 136°39'3 5.7
2018-Apr-19 02:31N 34°59' E 136°41'1 1.8
2018-Apr-19 01:45N 35°00' E 136°40'0 0.0
2018-Apr-18 11:21N 35°00' E 136°40'0 0.0
2018-Apr-18 10:51N 35°00' E 136°40'0 0.0
2018-Apr-18 05:03N 35°00' E 136°40'0 0.0
2018-Apr-18 04:57N 35°00' E 136°40'0 0.0
2018-Apr-18 04:27N 35°00' E 136°40'0 0.0
2018-Apr-18 02:45N 35°00' E 136°40'0 0.0
2018-Apr-18 02:27N 35°00' E 136°40'0 0.0
2018-Apr-18 01:57N 35°00' E 136°40'0 0.0
2018-Apr-17 22:21N 35°00' E 136°40'0 0.0
2018-Apr-17 21:51N 35°00' E 136°40'0 0.0
2018-Apr-17 12:34N 35°00' E 136°40'0 0.3
2018-Apr-17 12:30N 35°00' E 136°40'5 9.1
2018-Apr-17 12:00N 34°56' E 136°43'2 3.6
2018-Apr-17 11:30N 34°54' E 136°43'1 2.6
2018-Apr-17 11:00N 34°56' E 136°42'0 0.7
2018-Apr-17 10:30N 34°56' E 136°42'1 1.3
2018-Apr-17 09:59N 34°56' E 136°42'0 0.7
2018-Apr-17 09:30N 34°56' E 136°42'0 0.6
2018-Apr-17 09:00N 34°56' E 136°42'0 0.5
2018-Apr-17 08:30N 34°56' E 136°42'0 0.4
2018-Apr-17 08:00N 34°56' E 136°42'0 0.1
2018-Apr-17 07:30N 34°56' E 136°42'0 0.2
2018-Apr-17 07:00N 34°56' E 136°42'0 0.4
2018-Apr-17 06:30N 34°56' E 136°42'0 0.6
2018-Apr-17 06:00N 34°56' E 136°42'0 0.1
2018-Apr-17 05:31N 34°56' E 136°42'0 0.6
2018-Apr-17 05:00N 34°56' E 136°42'0 0.1
2018-Apr-17 04:30N 34°56' E 136°42'0 0.4
2018-Apr-17 04:00N 34°56' E 136°42'0 0.4
2018-Apr-17 03:30N 34°56' E 136°42'0 0.0
2018-Apr-17 03:00N 34°56' E 136°42'0 0.1
2018-Apr-17 02:30N 34°56' E 136°42'0 0.5
2018-Apr-17 02:00N 34°56' E 136°42'0 0.2
2018-Apr-17 01:30N 34°56' E 136°42'0 0.1
2018-Apr-17 01:00N 34°56' E 136°42'0 0.2
2018-Apr-17 00:30N 34°56' E 136°42'0 0.1
2018-Apr-17 00:00N 34°56' E 136°42'0 0.1
2018-Apr-16 23:30N 34°56' E 136°42'0 0.4
2018-Apr-16 23:00N 34°56' E 136°42'0 0.3
2018-Apr-16 22:30N 34°56' E 136°42'0 0.4
2018-Apr-16 22:00N 34°56' E 136°42'0 0.2
2018-Apr-16 21:30N 34°56' E 136°42'0 0.1
2018-Apr-16 21:00N 34°56' E 136°42'0 0.6
2018-Apr-16 20:30N 34°56' E 136°42'0 0.5
2018-Apr-16 20:00N 34°56' E 136°42'0 0.2
2018-Apr-16 19:30N 34°56' E 136°42'0 0.0
2018-Apr-16 19:01N 34°56' E 136°42'0 0.0
2018-Apr-16 18:31N 34°56' E 136°42'0 0.2
2018-Apr-16 18:00N 34°56' E 136°42'0 0.1
2018-Apr-16 17:30N 34°56' E 136°42'0 0.4
2018-Apr-16 17:00N 34°56' E 136°42'0 0.3
2018-Apr-16 16:30N 34°56' E 136°42'0 0.2
2018-Apr-16 16:01N 34°56' E 136°42'0 0.4
2018-Apr-16 15:31N 34°56' E 136°42'0 0.2
2018-Apr-16 15:00N 34°56' E 136°42'0 0.2
2018-Apr-16 14:30N 34°56' E 136°42'0 0.2
2018-Apr-16 14:00N 34°56' E 136°42'0 0.0
2018-Apr-16 13:31N 34°56' E 136°42'0 0.1
2018-Apr-16 13:00N 34°56' E 136°42'0 0.2
2018-Apr-16 12:30N 34°56' E 136°42'0 0.0
2018-Apr-16 12:00N 34°56' E 136°42'0 0.1
2018-Apr-16 11:30N 34°56' E 136°42'0 0.2
2018-Apr-16 11:01N 34°56' E 136°42'0 0.6
2018-Apr-16 10:30N 34°56' E 136°42'0 0.1
2018-Apr-16 10:00N 34°56' E 136°42'0 0.2
2018-Apr-16 09:30N 34°56' E 136°42'0 0.0
2018-Apr-16 09:00N 34°56' E 136°42'0 0.2
2018-Apr-16 08:30N 34°56' E 136°42'0 0.2
2018-Apr-16 08:00N 34°56' E 136°42'0 0.1
2018-Apr-16 07:30N 34°56' E 136°42'0 0.3
2018-Apr-16 07:00N 34°56' E 136°42'0 0.3
2018-Apr-16 06:30N 34°56' E 136°42'0 0.5
2018-Apr-16 06:00N 34°56' E 136°42'0 0.1
2018-Apr-16 05:30N 34°56' E 136°42'0 0.3
2018-Apr-16 05:00N 34°56' E 136°42'0 0.3
2018-Apr-16 04:30N 34°56' E 136°42'0 0.4
2018-Apr-16 04:00N 34°56' E 136°42'0 0.2
2018-Apr-16 03:30N 34°56' E 136°42'2 3.5
2018-Apr-16 03:00N 34°56' E 136°44'4 8.7
2018-Apr-16 02:31N 34°58' E 136°49'0 0.2
2018-Apr-16 02:00N 34°58' E 136°49'0 0.1
2018-Apr-16 01:30N 34°58' E 136°49'0 0.8
2018-Apr-16 01:00N 34°58' E 136°49'4 7.2
2018-Apr-16 00:30N 34°55' E 136°47'5 9.2
2018-Apr-15 23:55N 34°50' E 136°47'510.9
2018-Apr-15 23:30N 34°54' E 136°46'713.2
2018-Apr-15 23:00N 34°60' E 136°41'1 1.1
2018-Apr-15 21:45N 35°00' E 136°40'0 0.0
2018-Apr-15 21:27N 35°00' E 136°40'0 0.0
2018-Apr-15 20:57N 35°00' E 136°40'0 0.0
2018-Apr-15 19:33N 35°00' E 136°40'0 0.0
2018-Apr-15 19:27N 35°00' E 136°40'0 0.0
2018-Apr-15 15:09N 35°00' E 136°40'0 0.0
2018-Apr-15 14:57N 35°00' E 136°40'0 0.0
2018-Apr-15 07:46N 35°00' E 136°40'2 6.4
2018-Apr-15 07:30N 34°60' E 136°42'611.7
2018-Apr-15 07:00N 34°59' E 136°49'1 1.2
2018-Apr-15 06:30N 34°59' E 136°50'0 0.4
2018-Apr-15 06:00N 34°59' E 136°49'0 0.6
2018-Apr-15 05:30N 34°59' E 136°50'0 0.3
2018-Apr-15 05:00N 34°59' E 136°49'0 0.0
2018-Apr-15 04:30N 34°59' E 136°49'0 0.1
2018-Apr-15 04:00N 34°59' E 136°49'0 0.0
2018-Apr-15 03:30N 34°59' E 136°49'0 0.5
2018-Apr-15 03:01N 34°59' E 136°50'0 0.4
2018-Apr-15 02:30N 34°59' E 136°49'0 0.1
2018-Apr-15 02:00N 34°59' E 136°49'0 0.0
2018-Apr-15 01:30N 34°59' E 136°49'0 0.0
2018-Apr-15 01:00N 34°59' E 136°49'0 0.0
2018-Apr-15 00:30N 34°59' E 136°49'0 0.0
2018-Apr-15 00:00N 34°59' E 136°49'0 0.0
2018-Apr-14 23:30N 34°59' E 136°49'0 0.1
2018-Apr-14 23:00N 34°59' E 136°49'0 0.0
2018-Apr-14 22:30N 34°59' E 136°49'0 0.0
2018-Apr-14 22:00N 34°59' E 136°49'0 0.0
2018-Apr-14 21:30N 34°59' E 136°49'0 0.0
2018-Apr-14 21:00N 34°59' E 136°49'0 0.0
2018-Apr-14 20:30N 34°59' E 136°49'0 0.0
2018-Apr-14 20:00N 34°59' E 136°49'0 0.0
2018-Apr-14 19:30N 34°59' E 136°49'0 0.5
2018-Apr-14 19:00N 34°59' E 136°50'0 0.5
2018-Apr-14 18:29N 34°59' E 136°49'0 0.0
2018-Apr-14 18:00N 34°59' E 136°49'0 0.0
2018-Apr-14 17:30N 34°59' E 136°49'0 0.0
2018-Apr-14 17:00N 34°59' E 136°49'0 0.1
2018-Apr-14 16:31N 34°59' E 136°49'0 0.0
2018-Apr-14 16:00N 34°59' E 136°49'0 0.0
2018-Apr-14 15:30N 34°59' E 136°49'0 0.6
2018-Apr-14 15:01N 34°59' E 136°50'0 0.7
2018-Apr-14 14:31N 34°59' E 136°49'0 0.0
2018-Apr-14 14:00N 34°59' E 136°49'0 0.0
2018-Apr-14 13:30N 34°59' E 136°49'0 0.0
2018-Apr-14 13:00N 34°59' E 136°49'0 0.0
2018-Apr-14 12:30N 34°59' E 136°49'0 0.0
2018-Apr-14 12:00N 34°59' E 136°49'0 0.0
2018-Apr-14 11:30N 34°59' E 136°49'0 0.6
2018-Apr-14 11:01N 34°59' E 136°50'0 0.5
2018-Apr-14 10:30N 34°59' E 136°49'0 0.1
2018-Apr-14 10:00N 34°59' E 136°49'0 0.1
2018-Apr-14 09:30N 34°59' E 136°49'0 0.0
2018-Apr-14 09:01N 34°59' E 136°49'0 0.0
2018-Apr-14 08:30N 34°59' E 136°49'0 0.0
2018-Apr-14 08:00N 34°59' E 136°49'0 0.0
2018-Apr-14 07:30N 34°59' E 136°49'0 0.5
2018-Apr-14 07:01N 34°59' E 136°50'0 0.4
2018-Apr-14 06:30N 34°59' E 136°49'0 0.0
2018-Apr-14 06:01N 34°59' E 136°49'0 0.0
2018-Apr-14 05:30N 34°59' E 136°49'0 0.0
2018-Apr-14 05:00N 34°59' E 136°49'0 0.0
2018-Apr-14 04:30N 34°59' E 136°49'0 0.0
2018-Apr-14 04:00N 34°59' E 136°49'0 0.2
2018-Apr-14 03:31N 34°59' E 136°50'0 0.2
2018-Apr-14 03:00N 34°59' E 136°49'0 0.2
2018-Apr-14 02:30N 34°59' E 136°50'0 0.0
2018-Apr-14 02:00N 34°59' E 136°50'0 0.3
2018-Apr-14 01:30N 34°59' E 136°49'0 0.5
2018-Apr-14 01:00N 34°59' E 136°50'0 0.4
2018-Apr-14 00:30N 34°59' E 136°49'0 0.1
2018-Apr-14 00:01N 34°59' E 136°50'0 0.2
2018-Apr-13 23:30N 34°59' E 136°50'0 0.1
2018-Apr-13 23:00N 34°59' E 136°50'1 2.0
2018-Apr-13 22:30N 34°58' E 136°48'612.1
2018-Apr-13 22:00N 34°60' E 136°41'1 0.1
2018-Apr-13 11:44N 35°00' E 136°40'0 0.0
2018-Apr-13 11:26N 35°00' E 136°40'0 0.0
2018-Apr-13 00:14N 35°00' E 136°40'0 0.0
2018-Apr-12 23:14N 35°00' E 136°40'0 0.0
2018-Apr-12 15:44N 35°00' E 136°40'0 0.0
2018-Apr-12 15:20N 35°00' E 136°40'0 0.0
2018-Apr-12 14:50N 35°00' E 136°40'0 0.0
2018-Apr-12 14:14N 35°00' E 136°40'0 0.0
2018-Apr-12 13:41N 35°00' E 136°40'0 0.0
2018-Apr-12 13:20N 35°00' E 136°40'0 0.0
2018-Apr-12 12:56N 35°00' E 136°40'0 0.0
2018-Apr-12 12:26N 35°00' E 136°40'0 0.0
2018-Apr-12 10:26N 35°00' E 136°40'0 0.0
2018-Apr-12 01:44N 35°00' E 136°40'0 0.0
2018-Apr-12 01:08N 35°00' E 136°40'0 0.0
2018-Apr-11 23:47N 35°00' E 136°40'0 0.0
2018-Apr-11 23:26N 35°00' E 136°40'0 0.0
2018-Apr-11 22:44N 35°00' E 136°40'0 0.0
2018-Apr-11 22:20N 35°00' E 136°40'0 0.0
2018-Apr-11 21:56N 35°00' E 136°40'0 0.0
2018-Apr-11 21:26N 35°00' E 136°40'0 0.0
2018-Apr-11 20:56N 35°00' E 136°40'0 0.0
2018-Apr-11 20:26N 35°00' E 136°40'0 0.0
2018-Apr-11 19:56N 35°00' E 136°40'0 0.0
2018-Apr-11 19:20N 35°00' E 136°40'0 0.0
2018-Apr-11 18:50N 35°00' E 136°40'0 0.0
2018-Apr-11 18:02N 35°00' E 136°40'0 0.0
2018-Apr-11 17:50N 35°00' E 136°40'0 0.0
2018-Apr-11 15:47N 35°00' E 136°40'0 0.0
2018-Apr-11 15:29N 35°00' E 136°40'0 0.0
2018-Apr-11 14:53N 35°00' E 136°40'0 0.0
2018-Apr-11 14:29N 35°00' E 136°40'0 0.0
2018-Apr-11 13:56N 35°00' E 136°40'0 0.0
2018-Apr-11 13:23N 35°00' E 136°40'0 0.0
2018-Apr-11 12:56N 35°00' E 136°40'0 0.0
2018-Apr-11 12:26N 35°00' E 136°40'0 0.0
2018-Apr-11 11:50N 35°00' E 136°40'0 0.0
2018-Apr-11 11:26N 35°00' E 136°40'0 0.0
2018-Apr-11 11:00N 35°00' E 136°40'4 8.8
2018-Apr-11 10:31N 34°57' E 136°43'713.0
2018-Apr-11 10:00N 34°51' E 136°46'612.9
2018-Apr-11 09:30N 34°45' E 136°49'12 6.5
2018-Apr-11 07:42N 34°36' E 136°58'3 9.7
2018-Apr-11 07:21N 34°38' E 136°54'411.7
2018-Apr-11 07:00N 34°40' E 136°50'611.0
2018-Apr-11 06:30N 34°45' E 136°47'511.1
2018-Apr-11 06:00N 34°50' E 136°46'612.6
2018-Apr-11 05:30N 34°56' E 136°47'3 6.0
2018-Apr-11 05:00N 34°59' E 136°49'0 0.0
2018-Apr-11 04:31N 34°59' E 136°49'0 0.9
2018-Apr-11 04:00N 34°58' E 136°49'0 0.5
2018-Apr-11 03:30N 34°58' E 136°49'0 0.0
2018-Apr-11 03:00N 34°58' E 136°49'0 0.0
2018-Apr-11 02:30N 34°58' E 136°49'0 0.5
2018-Apr-11 02:00N 34°58' E 136°49'0 0.6
2018-Apr-11 01:30N 34°58' E 136°49'0 0.1
2018-Apr-11 01:00N 34°58' E 136°49'0 0.0
2018-Apr-11 00:30N 34°58' E 136°49'0 0.0
2018-Apr-11 00:00N 34°58' E 136°49'0 0.0
2018-Apr-10 23:30N 34°58' E 136°49'0 0.0
2018-Apr-10 23:00N 34°58' E 136°49'0 0.0
2018-Apr-10 22:29N 34°58' E 136°49'0 0.5
2018-Apr-10 22:00N 34°58' E 136°49'0 0.5
2018-Apr-10 21:31N 34°58' E 136°49'0 0.0
2018-Apr-10 21:00N 34°58' E 136°49'0 0.0
2018-Apr-10 20:30N 34°58' E 136°49'0 0.0
2018-Apr-10 20:00N 34°58' E 136°49'0 0.0
2018-Apr-10 19:30N 34°58' E 136°49'0 0.0
2018-Apr-10 19:00N 34°58' E 136°49'0 0.0
2018-Apr-10 18:30N 34°58' E 136°49'0 0.4
2018-Apr-10 18:00N 34°58' E 136°49'0 0.4
2018-Apr-10 17:30N 34°58' E 136°49'0 0.0
2018-Apr-10 17:00N 34°58' E 136°49'0 0.0
2018-Apr-10 16:30N 34°58' E 136°49'0 0.1
2018-Apr-10 16:00N 34°58' E 136°49'  

Dump ship's entire track history